Airfield :
LOGIN :

Register | Disclaimer

   EN    FR    IT 

 










Legend :    VFR   Marginal VFR   IFR   Intensive IFR   Very Intensive IFR
Visi :
Ceiling :
>= 8 km
>= 3000ft
5 to 8 km
1000 to 3000 ft
1500m to 5 km
500 to 1000 ft
800 to 1500m
200 to 500 ft
< 800m
< 200 ft
Symbols :   Thunderstorms  Fog  Heavy snow  Heavy precipitations  Wind > 20 kt
SIGMETs :     Misc.  Thunderstorms  Icing  Turbulence  Mountain Waves  Volcanic Ashes






- Airport Elevation : 1766 ft


ETHL - Laupheim AB

CURRENT METAR :
  • 230820Z 05006KT 9999 FEW012 SCT080 BKN110 15/09 Q1016 BLU BLU

EXPIRED METARs :
  • 230720Z 04002KT 9999 FEW010 SCT100 BKN120 14/10 Q1016 BLU BLU
  • 230620Z 11001KT 9999 FEW007 BKN130 12/10 Q1016 BLU BLU
  • 230520Z 16002KT 9999 VCFG BKN130 10/09 Q1016 BLU BLU
  • 230420Z 19001KT 9999 VCFG SCT160 09/08 Q1016 BLU+BLU+

TAF TAF ETHL
Valid from the 23 at 08:00 until the 23 at 17:00 UTC


230727Z 2308/2317 06005KT 9999 NSW SCT050 BKN090
TEMPO 2310/2317 VRB15G30KT 3000 TSRA SCT010 BKN030CB



MET'MAP, your aeronautical weather chart ! - Copyright ORBIFLY December 2007 - Disclaimer

ORBIFLY MET'MAP TEAM :

Programming & Development : Alexandra Zaïnal
Original concept : Baudouin d'Aumeries
Technical & hardware support : Manuel Goepfert
Assistance : Marc-Olivier Méhu




SOURCES & CREDITS :

   NOAA